sensor_id;sensor_type;location;lat;lon;timestamp;pressure;altitude;pressure_sealevel;temperature;humidity
73338;BME280;61575;49.908;35.556;2022-12-18T00:01:58;98965.44;;;5.08;100.00
73338;BME280;61575;49.908;35.556;2022-12-18T00:05:03;98976.25;;;5.06;100.00
73338;BME280;61575;49.908;35.556;2022-12-18T00:08:05;98989.59;;;4.97;100.00
73338;BME280;61575;49.908;35.556;2022-12-18T00:11:15;98987.13;;;4.76;100.00
73338;BME280;61575;49.908;35.556;2022-12-18T00:14:17;98997.28;;;4.53;100.00
73338;BME280;61575;49.908;35.556;2022-12-18T00:17:19;99011.41;;;4.54;100.00
73338;BME280;61575;49.908;35.556;2022-12-18T00:20:21;99012.84;;;4.48;100.00
73338;BME280;61575;49.908;35.556;2022-12-18T00:23:27;99018.75;;;4.32;100.00
73338;BME280;61575;49.908;35.556;2022-12-18T00:26:32;99028.97;;;4.27;100.00
73338;BME280;61575;49.908;35.556;2022-12-18T00:29:36;99033.16;;;4.10;100.00
73338;BME280;61575;49.908;35.556;2022-12-18T00:32:37;99043.97;;;3.99;100.00
73338;BME280;61575;49.908;35.556;2022-12-18T00:35:39;99042.84;;;3.92;100.00
73338;BME280;61575;49.908;35.556;2022-12-18T00:38:41;99047.75;;;3.87;100.00
73338;BME280;61575;49.908;35.556;2022-12-18T00:41:44;99050.66;;;3.74;100.00
73338;BME280;61575;49.908;35.556;2022-12-18T00:45:06;99071.75;;;3.57;100.00
73338;BME280;61575;49.908;35.556;2022-12-18T00:48:13;99079.84;;;3.55;100.00
73338;BME280;61575;49.908;35.556;2022-12-18T00:51:15;99078.97;;;3.45;100.00
73338;BME280;61575;49.908;35.556;2022-12-18T00:54:17;99080.94;;;3.43;100.00
73338;BME280;61575;49.908;35.556;2022-12-18T00:57:19;99086.50;;;3.40;100.00
73338;BME280;61575;49.908;35.556;2022-12-18T01:00:21;99090.41;;;3.36;100.00
73338;BME280;61575;49.908;35.556;2022-12-18T01:03:23;99099.84;;;3.19;100.00
73338;BME280;61575;49.908;35.556;2022-12-18T01:06:25;99106.25;;;3.17;100.00
73338;BME280;61575;49.908;35.556;2022-12-18T01:09:27;99114.13;;;2.97;100.00
73338;BME280;61575;49.908;35.556;2022-12-18T01:12:29;99111.16;;;2.91;100.00
73338;BME280;61575;49.908;35.556;2022-12-18T01:15:31;99123.69;;;2.89;100.00
73338;BME280;61575;49.908;35.556;2022-12-18T01:18:33;99130.63;;;2.80;100.00
73338;BME280;61575;49.908;35.556;2022-12-18T01:21:35;99133.47;;;2.67;100.00
73338;BME280;61575;49.908;35.556;2022-12-18T01:24:38;99140.19;;;2.71;100.00
73338;BME280;61575;49.908;35.556;2022-12-18T01:27:40;99144.28;;;2.55;100.00
73338;BME280;61575;49.908;35.556;2022-12-18T01:30:41;99139.16;;;2.63;100.00
73338;BME280;61575;49.908;35.556;2022-12-18T01:33:44;99143.22;;;2.46;100.00
73338;BME280;61575;49.908;35.556;2022-12-18T01:36:46;99151.06;;;2.47;100.00
73338;BME280;61575;49.908;35.556;2022-12-18T01:39:48;99145.09;;;2.34;100.00
73338;BME280;61575;49.908;35.556;2022-12-18T01:42:52;99156.19;;;2.28;100.00
73338;BME280;61575;49.908;35.556;2022-12-18T01:45:54;99155.47;;;2.26;100.00
73338;BME280;61575;49.908;35.556;2022-12-18T01:49:00;99153.13;;;2.12;100.00
73338;BME280;61575;49.908;35.556;2022-12-18T01:52:02;99159.41;;;2.00;100.00
73338;BME280;61575;49.908;35.556;2022-12-18T01:55:06;99159.88;;;2.05;100.00
73338;BME280;61575;49.908;35.556;2022-12-18T01:58:08;99169.41;;;1.96;100.00
73338;BME280;61575;49.908;35.556;2022-12-18T02:01:10;99175.56;;;1.97;100.00
73338;BME280;61575;49.908;35.556;2022-12-18T02:04:24;99176.53;;;1.96;100.00
73338;BME280;61575;49.908;35.556;2022-12-18T02:11:13;99164.00;;;1.98;100.00
73338;BME280;61575;49.908;35.556;2022-12-18T02:17:38;99164.13;;;1.96;100.00
73338;BME280;61575;49.908;35.556;2022-12-18T02:20:47;99171.22;;;1.96;100.00
73338;BME280;61575;49.908;35.556;2022-12-18T02:23:57;99183.25;;;2.00;100.00
73338;BME280;61575;49.908;35.556;2022-12-18T02:27:07;99184.84;;;1.91;100.00
73338;BME280;61575;49.908;35.556;2022-12-18T02:30:12;99187.81;;;2.09;100.00
73338;BME280;61575;49.908;35.556;2022-12-18T02:33:14;99186.97;;;2.08;100.00
73338;BME280;61575;49.908;35.556;2022-12-18T02:36:18;99213.31;;;2.10;100.00
73338;BME280;61575;49.908;35.556;2022-12-18T02:39:25;99205.16;;;2.02;100.00
73338;BME280;61575;49.908;35.556;2022-12-18T02:42:36;99212.75;;;1.95;100.00
73338;BME280;61575;49.908;35.556;2022-12-18T02:45:56;99216.47;;;1.93;100.00
73338;BME280;61575;49.908;35.556;2022-12-18T02:56:09;99223.13;;;1.87;100.00
73338;BME280;61575;49.908;35.556;2022-12-18T02:59:20;99235.63;;;1.74;100.00
73338;BME280;61575;49.908;35.556;2022-12-18T03:02:36;99232.63;;;1.67;100.00
73338;BME280;61575;49.908;35.556;2022-12-18T03:08:47;99245.38;;;1.73;100.00
73338;BME280;61575;49.908;35.556;2022-12-18T03:12:00;99253.56;;;1.59;100.00
73338;BME280;61575;49.908;35.556;2022-12-18T03:15:26;99257.16;;;1.58;100.00
73338;BME280;61575;49.908;35.556;2022-12-18T03:19:01;99265.59;;;1.52;100.00
73338;BME280;61575;49.908;35.556;2022-12-18T03:22:07;99267.75;;;1.58;100.00
73338;BME280;61575;49.908;35.556;2022-12-18T03:25:20;99275.94;;;1.66;100.00
73338;BME280;61575;49.908;35.556;2022-12-18T03:28:30;99273.19;;;1.68;100.00
73338;BME280;61575;49.908;35.556;2022-12-18T03:31:40;99284.38;;;1.71;100.00
73338;BME280;61575;49.908;35.556;2022-12-18T03:34:44;99282.91;;;1.67;100.00
73338;BME280;61575;49.908;35.556;2022-12-18T03:37:51;99276.91;;;1.54;100.00
73338;BME280;61575;49.908;35.556;2022-12-18T03:41:05;99291.56;;;1.58;100.00
73338;BME280;61575;49.908;35.556;2022-12-18T03:44:44;99296.38;;;1.53;100.00
73338;BME280;61575;49.908;35.556;2022-12-18T03:48:06;99279.31;;;1.57;100.00
73338;BME280;61575;49.908;35.556;2022-12-18T03:51:28;99291.78;;;1.44;100.00
73338;BME280;61575;49.908;35.556;2022-12-18T03:54:33;99298.78;;;1.56;100.00
73338;BME280;61575;49.908;35.556;2022-12-18T03:57:45;99319.25;;;1.54;100.00
73338;BME280;61575;49.908;35.556;2022-12-18T04:00:49;99307.47;;;1.58;100.00
73338;BME280;61575;49.908;35.556;2022-12-18T04:03:54;99314.44;;;1.59;100.00
73338;BME280;61575;49.908;35.556;2022-12-18T04:06:58;99314.66;;;1.56;100.00
73338;BME280;61575;49.908;35.556;2022-12-18T04:10:01;99312.38;;;1.52;100.00
73338;BME280;61575;49.908;35.556;2022-12-18T04:13:05;99325.50;;;1.53;100.00
73338;BME280;61575;49.908;35.556;2022-12-18T04:16:09;99317.78;;;1.50;99.93
73338;BME280;61575;49.908;35.556;2022-12-18T04:19:15;99314.63;;;1.34;99.31
73338;BME280;61575;49.908;35.556;2022-12-18T04:22:18;99317.06;;;1.48;99.74
73338;BME280;61575;49.908;35.556;2022-12-18T04:25:25;99329.44;;;1.47;99.14
73338;BME280;61575;49.908;35.556;2022-12-18T04:28:38;99335.69;;;1.46;99.28
73338;BME280;61575;49.908;35.556;2022-12-18T04:31:41;99352.38;;;1.36;98.98
73338;BME280;61575;49.908;35.556;2022-12-18T04:34:43;99349.13;;;1.32;98.93
73338;BME280;61575;49.908;35.556;2022-12-18T04:37:46;99363.47;;;1.41;99.23
73338;BME280;61575;49.908;35.556;2022-12-18T04:40:49;99362.75;;;1.39;98.84
73338;BME280;61575;49.908;35.556;2022-12-18T04:43:58;99359.09;;;1.29;98.18
73338;BME280;61575;49.908;35.556;2022-12-18T04:47:00;99366.69;;;1.33;98.16
73338;BME280;61575;49.908;35.556;2022-12-18T04:50:02;99373.91;;;1.31;98.06
73338;BME280;61575;49.908;35.556;2022-12-18T04:53:04;99378.34;;;1.31;98.04
73338;BME280;61575;49.908;35.556;2022-12-18T04:56:11;99377.38;;;1.32;97.91
73338;BME280;61575;49.908;35.556;2022-12-18T04:59:13;99383.91;;;1.39;97.89
73338;BME280;61575;49.908;35.556;2022-12-18T05:02:15;99381.72;;;1.33;97.20
73338;BME280;61575;49.908;35.556;2022-12-18T05:05:17;99386.44;;;1.40;97.26
73338;BME280;61575;49.908;35.556;2022-12-18T05:08:19;99392.06;;;1.36;97.58
73338;BME280;61575;49.908;35.556;2022-12-18T05:11:21;99396.28;;;1.38;97.45
73338;BME280;61575;49.908;35.556;2022-12-18T05:14:23;99415.63;;;1.28;96.75
73338;BME280;61575;49.908;35.556;2022-12-18T05:17:26;99405.59;;;1.20;96.88
73338;BME280;61575;49.908;35.556;2022-12-18T05:20:28;99411.13;;;1.17;96.52
73338;BME280;61575;49.908;35.556;2022-12-18T05:23:30;99413.91;;;1.27;96.61
73338;BME280;61575;49.908;35.556;2022-12-18T05:26:32;99424.63;;;1.25;95.90
73338;BME280;61575;49.908;35.556;2022-12-18T05:29:34;99426.81;;;1.31;96.24
73338;BME280;61575;49.908;35.556;2022-12-18T05:32:36;99444.44;;;1.20;95.65
73338;BME280;61575;49.908;35.556;2022-12-18T05:35:38;99442.78;;;1.30;96.00
73338;BME280;61575;49.908;35.556;2022-12-18T05:38:40;99456.31;;;1.14;94.94
73338;BME280;61575;49.908;35.556;2022-12-18T05:41:42;99449.72;;;1.20;95.46
73338;BME280;61575;49.908;35.556;2022-12-18T05:44:44;99468.00;;;1.23;95.64
73338;BME280;61575;49.908;35.556;2022-12-18T05:47:46;99465.31;;;1.11;95.79
73338;BME280;61575;49.908;35.556;2022-12-18T05:50:49;99471.84;;;1.18;95.68
73338;BME280;61575;49.908;35.556;2022-12-18T05:53:51;99483.88;;;1.23;95.60
73338;BME280;61575;49.908;35.556;2022-12-18T05:56:53;99494.69;;;1.20;95.36
73338;BME280;61575;49.908;35.556;2022-12-18T05:59:55;99502.41;;;1.23;95.25
73338;BME280;61575;49.908;35.556;2022-12-18T06:02:58;99508.88;;;1.18;95.31
73338;BME280;61575;49.908;35.556;2022-12-18T06:06:00;99513.53;;;1.15;94.86
73338;BME280;61575;49.908;35.556;2022-12-18T06:09:02;99508.03;;;1.18;95.42
73338;BME280;61575;49.908;35.556;2022-12-18T06:12:09;99515.84;;;1.20;95.09
73338;BME280;61575;49.908;35.556;2022-12-18T06:15:12;99514.78;;;1.22;94.96
73338;BME280;61575;49.908;35.556;2022-12-18T06:18:14;99515.84;;;1.20;94.74
73338;BME280;61575;49.908;35.556;2022-12-18T06:21:16;99513.97;;;1.09;94.61
73338;BME280;61575;49.908;35.556;2022-12-18T06:24:18;99538.63;;;1.09;93.79
73338;BME280;61575;49.908;35.556;2022-12-18T06:27:20;99538.41;;;1.12;94.01
73338;BME280;61575;49.908;35.556;2022-12-18T06:30:22;99536.41;;;1.03;93.70
73338;BME280;61575;49.908;35.556;2022-12-18T06:33:26;99551.53;;;1.01;93.26
73338;BME280;61575;49.908;35.556;2022-12-18T06:36:29;99555.88;;;1.02;93.54
73338;BME280;61575;49.908;35.556;2022-12-18T06:39:31;99561.16;;;1.02;93.30
73338;BME280;61575;49.908;35.556;2022-12-18T06:42:33;99557.25;;;0.95;93.20
73338;BME280;61575;49.908;35.556;2022-12-18T06:45:35;99564.56;;;0.92;93.00
73338;BME280;61575;49.908;35.556;2022-12-18T06:48:37;99566.16;;;0.94;92.89
73338;BME280;61575;49.908;35.556;2022-12-18T06:51:39;99561.41;;;0.87;91.92
73338;BME280;61575;49.908;35.556;2022-12-18T06:54:41;99568.81;;;0.81;91.81
73338;BME280;61575;49.908;35.556;2022-12-18T06:57:42;99581.06;;;0.95;92.46
73338;BME280;61575;49.908;35.556;2022-12-18T07:00:44;99582.13;;;0.80;92.61
73338;BME280;61575;49.908;35.556;2022-12-18T07:03:46;99583.50;;;0.85;92.77
73338;BME280;61575;49.908;35.556;2022-12-18T07:06:48;99585.94;;;0.89;92.58
73338;BME280;61575;49.908;35.556;2022-12-18T07:09:50;99589.63;;;0.86;92.50
73338;BME280;61575;49.908;35.556;2022-12-18T07:12:52;99588.91;;;0.84;92.27
73338;BME280;61575;49.908;35.556;2022-12-18T07:15:54;99590.06;;;0.80;92.52
73338;BME280;61575;49.908;35.556;2022-12-18T07:18:56;99601.38;;;0.82;92.56
73338;BME280;61575;49.908;35.556;2022-12-18T07:21:58;99608.56;;;0.80;92.61
73338;BME280;61575;49.908;35.556;2022-12-18T07:25:01;99620.50;;;0.73;92.39
73338;BME280;61575;49.908;35.556;2022-12-18T07:28:03;99621.47;;;0.72;92.75
73338;BME280;61575;49.908;35.556;2022-12-18T07:34:11;99639.22;;;0.70;93.34
73338;BME280;61575;49.908;35.556;2022-12-18T07:37:13;99656.75;;;0.58;93.56
73338;BME280;61575;49.908;35.556;2022-12-18T07:40:15;99652.63;;;0.54;93.53
73338;BME280;61575;49.908;35.556;2022-12-18T07:43:17;99655.47;;;0.51;93.79
73338;BME280;61575;49.908;35.556;2022-12-18T07:46:19;99649.66;;;0.59;93.77
73338;BME280;61575;49.908;35.556;2022-12-18T07:49:21;99649.97;;;0.54;93.63
73338;BME280;61575;49.908;35.556;2022-12-18T07:52:23;99649.53;;;0.47;93.34
73338;BME280;61575;49.908;35.556;2022-12-18T07:55:27;99653.25;;;0.58;93.28
73338;BME280;61575;49.908;35.556;2022-12-18T07:58:30;99659.50;;;0.57;93.53
73338;BME280;61575;49.908;35.556;2022-12-18T08:01:33;99664.78;;;0.57;93.50
73338;BME280;61575;49.908;35.556;2022-12-18T08:04:35;99667.19;;;0.47;93.83
73338;BME280;61575;49.908;35.556;2022-12-18T08:07:37;99668.25;;;0.44;93.64
73338;BME280;61575;49.908;35.556;2022-12-18T08:10:39;99678.13;;;0.28;93.51
73338;BME280;61575;49.908;35.556;2022-12-18T08:13:41;99673.69;;;0.29;93.33
73338;BME280;61575;49.908;35.556;2022-12-18T08:16:43;99670.41;;;0.25;92.59
73338;BME280;61575;49.908;35.556;2022-12-18T08:19:45;99667.44;;;0.17;91.98
73338;BME280;61575;49.908;35.556;2022-12-18T08:22:47;99680.97;;;0.25;92.02
73338;BME280;61575;49.908;35.556;2022-12-18T08:25:49;99668.19;;;0.19;92.47
73338;BME280;61575;49.908;35.556;2022-12-18T08:28:56;99677.03;;;0.18;92.62
73338;BME280;61575;49.908;35.556;2022-12-18T08:31:58;99675.66;;;0.12;92.30
73338;BME280;61575;49.908;35.556;2022-12-18T08:35:00;99683.41;;;0.28;92.65
73338;BME280;61575;49.908;35.556;2022-12-18T08:38:02;99684.41;;;0.13;92.79
73338;BME280;61575;49.908;35.556;2022-12-18T08:41:07;99690.25;;;0.18;92.65
73338;BME280;61575;49.908;35.556;2022-12-18T08:44:10;99690.91;;;0.22;93.17
73338;BME280;61575;49.908;35.556;2022-12-18T08:47:30;99682.03;;;0.23;92.70
73338;BME280;61575;49.908;35.556;2022-12-18T08:50:33;99696.97;;;0.36;92.65
73338;BME280;61575;49.908;35.556;2022-12-18T08:53:35;99702.84;;;0.27;92.64
73338;BME280;61575;49.908;35.556;2022-12-18T08:56:37;99701.50;;;0.34;92.29
73338;BME280;61575;49.908;35.556;2022-12-18T08:59:39;99693.38;;;0.37;92.44
73338;BME280;61575;49.908;35.556;2022-12-18T09:02:41;99679.03;;;0.41;92.34
73338;BME280;61575;49.908;35.556;2022-12-18T09:05:45;99686.59;;;0.33;92.52
73338;BME280;61575;49.908;35.556;2022-12-18T09:08:47;99690.06;;;0.21;92.67
73338;BME280;61575;49.908;35.556;2022-12-18T09:11:49;99687.25;;;0.37;92.70
73338;BME280;61575;49.908;35.556;2022-12-18T09:14:51;99696.34;;;0.45;92.55
73338;BME280;61575;49.908;35.556;2022-12-18T09:17:53;99700.66;;;0.34;92.37
73338;BME280;61575;49.908;35.556;2022-12-18T09:20:55;99694.28;;;-0.03;92.20
73338;BME280;61575;49.908;35.556;2022-12-18T09:23:57;99699.22;;;0.15;92.45
73338;BME280;61575;49.908;35.556;2022-12-18T09:26:59;99699.63;;;0.09;92.58
73338;BME280;61575;49.908;35.556;2022-12-18T09:30:02;99708.97;;;0.01;92.94
73338;BME280;61575;49.908;35.556;2022-12-18T09:33:04;99708.47;;;-0.19;92.61
73338;BME280;61575;49.908;35.556;2022-12-18T09:36:09;99698.41;;;0.01;92.79
73338;BME280;61575;49.908;35.556;2022-12-18T09:39:12;99705.44;;;-0.13;91.98
73338;BME280;61575;49.908;35.556;2022-12-18T09:42:20;99717.16;;;-0.31;91.69
73338;BME280;61575;49.908;35.556;2022-12-18T09:45:23;99711.47;;;-0.10;92.20
73338;BME280;61575;49.908;35.556;2022-12-18T09:48:30;99714.06;;;0.04;92.03
73338;BME280;61575;49.908;35.556;2022-12-18T09:51:39;99719.59;;;0.13;91.82
73338;BME280;61575;49.908;35.556;2022-12-18T09:58:28;99723.81;;;-0.11;91.50
73338;BME280;61575;49.908;35.556;2022-12-18T10:01:32;99723.44;;;-0.19;91.90
73338;BME280;61575;49.908;35.556;2022-12-18T10:04:52;99720.97;;;-0.08;91.81
73338;BME280;61575;49.908;35.556;2022-12-18T10:14:53;99736.66;;;-0.33;90.79
73338;BME280;61575;49.908;35.556;2022-12-18T10:21:14;99733.28;;;-0.35;91.32
73338;BME280;61575;49.908;35.556;2022-12-18T10:24:33;99744.88;;;-0.38;91.34
73338;BME280;61575;49.908;35.556;2022-12-18T10:27:40;99740.34;;;-0.50;91.96
73338;BME280;61575;49.908;35.556;2022-12-18T10:30:43;99739.13;;;-0.45;92.09
73338;BME280;61575;49.908;35.556;2022-12-18T10:33:46;99750.31;;;-0.41;92.15
73338;BME280;61575;49.908;35.556;2022-12-18T10:36:48;99753.16;;;-0.30;91.74
73338;BME280;61575;49.908;35.556;2022-12-18T10:40:14;99758.06;;;-0.38;91.38
73338;BME280;61575;49.908;35.556;2022-12-18T10:43:26;99758.72;;;-0.34;91.57
73338;BME280;61575;49.908;35.556;2022-12-18T10:46:28;99752.88;;;-0.39;91.50
73338;BME280;61575;49.908;35.556;2022-12-18T10:49:32;99751.19;;;-0.40;91.31
73338;BME280;61575;49.908;35.556;2022-12-18T10:52:35;99755.50;;;-0.54;91.18
73338;BME280;61575;49.908;35.556;2022-12-18T10:55:44;99750.41;;;-0.71;91.50
73338;BME280;61575;49.908;35.556;2022-12-18T10:59:05;99766.53;;;-0.75;91.43
73338;BME280;61575;49.908;35.556;2022-12-18T11:02:26;99773.50;;;-0.60;91.14
73338;BME280;61575;49.908;35.556;2022-12-18T11:05:33;99765.78;;;-0.63;90.61
73338;BME280;61575;49.908;35.556;2022-12-18T11:08:35;99777.09;;;-0.61;89.94
73338;BME280;61575;49.908;35.556;2022-12-18T11:11:38;99774.25;;;-0.72;89.52
73338;BME280;61575;49.908;35.556;2022-12-18T11:14:46;99773.97;;;-0.68;89.20
73338;BME280;61575;49.908;35.556;2022-12-18T11:17:50;99775.28;;;-0.75;88.78
73338;BME280;61575;49.908;35.556;2022-12-18T11:24:22;99767.94;;;-0.70;88.58
73338;BME280;61575;49.908;35.556;2022-12-18T11:27:28;99777.22;;;-0.93;88.32
73338;BME280;61575;49.908;35.556;2022-12-18T11:30:32;99773.75;;;-0.93;88.57
73338;BME280;61575;49.908;35.556;2022-12-18T11:33:37;99765.38;;;-0.86;89.02
73338;BME280;61575;49.908;35.556;2022-12-18T11:37:02;99782.78;;;-0.97;88.66
73338;BME280;61575;49.908;35.556;2022-12-18T11:40:15;99787.09;;;-0.96;88.94
73338;BME280;61575;49.908;35.556;2022-12-18T11:43:50;99785.31;;;-0.96;89.11
73338;BME280;61575;49.908;35.556;2022-12-18T11:47:05;99794.44;;;-1.01;89.58
73338;BME280;61575;49.908;35.556;2022-12-18T11:50:19;99790.59;;;-0.96;89.49
73338;BME280;61575;49.908;35.556;2022-12-18T11:53:25;99787.09;;;-0.96;89.40
73338;BME280;61575;49.908;35.556;2022-12-18T11:56:41;99801.31;;;-0.99;88.89
73338;BME280;61575;49.908;35.556;2022-12-18T12:00:07;99804.63;;;-0.95;88.62
73338;BME280;61575;49.908;35.556;2022-12-18T12:17:37;99849.25;;;-1.22;87.46
73338;BME280;61575;49.908;35.556;2022-12-18T12:27:50;99859.41;;;-1.46;87.13
73338;BME280;61575;49.908;35.556;2022-12-18T12:31:36;99860.66;;;-1.37;86.81
73338;BME280;61575;49.908;35.556;2022-12-18T12:41:09;99872.81;;;-1.51;86.92
73338;BME280;61575;49.908;35.556;2022-12-18T12:44:37;99886.59;;;-1.46;86.89
73338;BME280;61575;49.908;35.556;2022-12-18T12:47:42;99888.88;;;-1.39;86.74
73338;BME280;61575;49.908;35.556;2022-12-18T12:50:47;99888.97;;;-1.57;86.06
73338;BME280;61575;49.908;35.556;2022-12-18T12:53:50;99888.44;;;-1.63;85.96
73338;BME280;61575;49.908;35.556;2022-12-18T12:57:11;99896.44;;;-1.65;85.61
73338;BME280;61575;49.908;35.556;2022-12-18T13:00:18;99899.31;;;-1.69;85.92
73338;BME280;61575;49.908;35.556;2022-12-18T13:06:48;99911.03;;;-1.75;86.00
73338;BME280;61575;49.908;35.556;2022-12-18T13:13:17;99909.41;;;-1.78;85.99
73338;BME280;61575;49.908;35.556;2022-12-18T13:16:25;99914.81;;;-1.96;85.44
73338;BME280;61575;49.908;35.556;2022-12-18T13:19:30;99917.28;;;-1.93;85.32
73338;BME280;61575;49.908;35.556;2022-12-18T13:22:44;99924.25;;;-1.92;85.29
73338;BME280;61575;49.908;35.556;2022-12-18T13:25:47;99909.75;;;-1.84;85.18
73338;BME280;61575;49.908;35.556;2022-12-18T13:28:51;99921.78;;;-1.95;84.63
73338;BME280;61575;49.908;35.556;2022-12-18T13:31:59;99922.38;;;-1.90;83.52
73338;BME280;61575;49.908;35.556;2022-12-18T13:35:37;99935.63;;;-1.92;83.94
73338;BME280;61575;49.908;35.556;2022-12-18T13:38:41;99937.47;;;-1.94;83.66
73338;BME280;61575;49.908;35.556;2022-12-18T13:41:51;99940.03;;;-1.92;83.06
73338;BME280;61575;49.908;35.556;2022-12-18T13:44:53;99951.34;;;-1.90;83.35
73338;BME280;61575;49.908;35.556;2022-12-18T13:47:55;99956.34;;;-1.86;83.61
73338;BME280;61575;49.908;35.556;2022-12-18T13:54:18;99963.06;;;-1.80;83.71
73338;BME280;61575;49.908;35.556;2022-12-18T13:57:36;99960.59;;;-1.83;82.79
73338;BME280;61575;49.908;35.556;2022-12-18T14:00:43;99976.50;;;-2.02;82.09
73338;BME280;61575;49.908;35.556;2022-12-18T14:03:46;99982.47;;;-1.98;82.25
73338;BME280;61575;49.908;35.556;2022-12-18T14:06:51;99980.63;;;-2.14;81.75
73338;BME280;61575;49.908;35.556;2022-12-18T14:09:55;99989.38;;;-2.13;81.81
73338;BME280;61575;49.908;35.556;2022-12-18T14:13:35;99988.41;;;-1.95;81.92
73338;BME280;61575;49.908;35.556;2022-12-18T14:16:40;99992.63;;;-2.08;81.34
73338;BME280;61575;49.908;35.556;2022-12-18T14:19:46;99997.56;;;-2.02;81.14
73338;BME280;61575;49.908;35.556;2022-12-18T14:22:49;99994.47;;;-2.10;80.57
73338;BME280;61575;49.908;35.556;2022-12-18T14:25:51;100009.19;;;-2.23;79.88
73338;BME280;61575;49.908;35.556;2022-12-18T14:28:58;100010.66;;;-2.18;80.32
73338;BME280;61575;49.908;35.556;2022-12-18T14:32:15;100010.72;;;-2.19;80.43
73338;BME280;61575;49.908;35.556;2022-12-18T14:35:19;100024.13;;;-2.24;80.30
73338;BME280;61575;49.908;35.556;2022-12-18T14:38:32;100023.34;;;-2.26;80.52
73338;BME280;61575;49.908;35.556;2022-12-18T14:41:34;100038.25;;;-2.44;80.48
73338;BME280;61575;49.908;35.556;2022-12-18T14:44:37;100033.25;;;-2.31;80.73
73338;BME280;61575;49.908;35.556;2022-12-18T14:48:00;100042.06;;;-2.32;80.42
73338;BME280;61575;49.908;35.556;2022-12-18T14:51:03;100051.41;;;-2.44;80.48
73338;BME280;61575;49.908;35.556;2022-12-18T14:54:16;100054.44;;;-2.34;80.99
73338;BME280;61575;49.908;35.556;2022-12-18T14:57:23;100043.66;;;-2.47;81.07
73338;BME280;61575;49.908;35.556;2022-12-18T15:00:26;100055.09;;;-2.48;80.20
73338;BME280;61575;49.908;35.556;2022-12-18T15:03:28;100062.63;;;-2.40;80.15
73338;BME280;61575;49.908;35.556;2022-12-18T15:09:34;100070.66;;;-2.43;79.51
73338;BME280;61575;49.908;35.556;2022-12-18T15:18:42;100078.63;;;-2.45;79.14
73338;BME280;61575;49.908;35.556;2022-12-18T15:21:46;100088.72;;;-2.54;78.28
73338;BME280;61575;49.908;35.556;2022-12-18T15:24:49;100090.28;;;-2.50;78.31
73338;BME280;61575;49.908;35.556;2022-12-18T15:27:52;100078.78;;;-2.48;78.14
73338;BME280;61575;49.908;35.556;2022-12-18T15:34:23;100093.84;;;-2.51;76.86
73338;BME280;61575;49.908;35.556;2022-12-18T15:37:25;100092.22;;;-2.54;77.36
73338;BME280;61575;49.908;35.556;2022-12-18T15:40:27;100098.69;;;-2.61;77.00
73338;BME280;61575;49.908;35.556;2022-12-18T15:43:29;100094.84;;;-2.54;77.21
73338;BME280;61575;49.908;35.556;2022-12-18T15:46:38;100101.03;;;-2.55;76.30
73338;BME280;61575;49.908;35.556;2022-12-18T15:49:40;100107.72;;;-2.66;75.56
73338;BME280;61575;49.908;35.556;2022-12-18T15:52:45;100111.91;;;-2.81;76.27
73338;BME280;61575;49.908;35.556;2022-12-18T15:55:47;100112.69;;;-2.79;76.58
73338;BME280;61575;49.908;35.556;2022-12-18T15:59:16;100123.44;;;-2.84;75.57
73338;BME280;61575;49.908;35.556;2022-12-18T16:02:22;100124.78;;;-2.75;75.66
73338;BME280;61575;49.908;35.556;2022-12-18T16:05:26;100139.41;;;-2.69;76.05
73338;BME280;61575;49.908;35.556;2022-12-18T16:08:29;100141.91;;;-2.66;75.89
73338;BME280;61575;49.908;35.556;2022-12-18T16:11:33;100143.31;;;-2.59;76.56
73338;BME280;61575;49.908;35.556;2022-12-18T16:14:45;100149.50;;;-2.60;76.72
73338;BME280;61575;49.908;35.556;2022-12-18T16:17:47;100152.56;;;-2.69;76.44
73338;BME280;61575;49.908;35.556;2022-12-18T16:20:49;100164.06;;;-2.72;76.58
73338;BME280;61575;49.908;35.556;2022-12-18T16:23:52;100160.50;;;-2.71;77.05
73338;BME280;61575;49.908;35.556;2022-12-18T16:26:58;100158.38;;;-2.82;76.48
73338;BME280;61575;49.908;35.556;2022-12-18T16:30:00;100169.66;;;-2.80;76.57
73338;BME280;61575;49.908;35.556;2022-12-18T16:33:02;100176.34;;;-2.91;76.64
73338;BME280;61575;49.908;35.556;2022-12-18T16:36:06;100177.13;;;-2.89;77.06
73338;BME280;61575;49.908;35.556;2022-12-18T16:39:08;100180.28;;;-3.01;77.56
73338;BME280;61575;49.908;35.556;2022-12-18T16:42:16;100195.88;;;-3.17;76.80
73338;BME280;61575;49.908;35.556;2022-12-18T16:45:21;100196.94;;;-3.21;77.79
73338;BME280;61575;49.908;35.556;2022-12-18T16:48:23;100193.09;;;-2.94;77.85
73338;BME280;61575;49.908;35.556;2022-12-18T16:51:26;100197.25;;;-3.09;77.81
73338;BME280;61575;49.908;35.556;2022-12-18T16:54:30;100210.38;;;-2.88;77.74
73338;BME280;61575;49.908;35.556;2022-12-18T16:57:32;100214.03;;;-2.92;78.26
73338;BME280;61575;49.908;35.556;2022-12-18T17:00:34;100208.06;;;-2.96;78.32
73338;BME280;61575;49.908;35.556;2022-12-18T17:03:36;100204.38;;;-2.92;77.49
73338;BME280;61575;49.908;35.556;2022-12-18T17:06:41;100218.19;;;-2.87;77.44
73338;BME280;61575;49.908;35.556;2022-12-18T17:09:45;100221.59;;;-2.85;76.70
73338;BME280;61575;49.908;35.556;2022-12-18T17:12:49;100226.84;;;-2.85;76.73
73338;BME280;61575;49.908;35.556;2022-12-18T17:15:51;100227.13;;;-2.91;77.40
73338;BME280;61575;49.908;35.556;2022-12-18T17:18:53;100237.25;;;-3.02;77.10
73338;BME280;61575;49.908;35.556;2022-12-18T17:21:55;100241.03;;;-2.89;77.18
73338;BME280;61575;49.908;35.556;2022-12-18T17:24:57;100242.88;;;-2.91;77.29
73338;BME280;61575;49.908;35.556;2022-12-18T17:27:59;100251.56;;;-2.89;77.14
73338;BME280;61575;49.908;35.556;2022-12-18T17:31:01;100249.78;;;-2.88;77.88
73338;BME280;61575;49.908;35.556;2022-12-18T17:34:03;100246.97;;;-3.04;77.56
73338;BME280;61575;49.908;35.556;2022-12-18T17:37:06;100249.06;;;-2.92;77.76
73338;BME280;61575;49.908;35.556;2022-12-18T17:40:08;100244.06;;;-2.98;77.42